sensor_id;sensor_type;location;lat;lon;timestamp;P1;P2;P0
55485;PMS5003;49383;-25.924;28.194;2023-04-24T00:01:30;64;58;
55485;PMS5003;49383;-25.924;28.194;2023-04-24T00:03:55;69;61;
55485;PMS5003;49383;-25.924;28.194;2023-04-24T00:06:20;70;61;
55485;PMS5003;49383;-25.924;28.194;2023-04-24T00:08:46;70;59;
55485;PMS5003;49383;-25.924;28.194;2023-04-24T00:11:11;71;64;
55485;PMS5003;49383;-25.924;28.194;2023-04-24T00:13:37;71;59;
55485;PMS5003;49383;-25.924;28.194;2023-04-24T00:16:02;68;59;
55485;PMS5003;49383;-25.924;28.194;2023-04-24T00:18:27;66;60;
55485;PMS5003;49383;-25.924;28.194;2023-04-24T00:20:52;68;61;
55485;PMS5003;49383;-25.924;28.194;2023-04-24T00:23:18;71;60;
55485;PMS5003;49383;-25.924;28.194;2023-04-24T00:25:43;75;67;
55485;PMS5003;49383;-25.924;28.194;2023-04-24T00:28:09;74;61;
55485;PMS5003;49383;-25.924;28.194;2023-04-24T00:30:34;67;62;
55485;PMS5003;49383;-25.924;28.194;2023-04-24T00:33:00;63;58;
55485;PMS5003;49383;-25.924;28.194;2023-04-24T00:35:26;70;62;
55485;PMS5003;49383;-25.924;28.194;2023-04-24T00:37:51;66;60;
55485;PMS5003;49383;-25.924;28.194;2023-04-24T00:40:23;63;60;
55485;PMS5003;49383;-25.924;28.194;2023-04-24T00:42:43;75;61;
55485;PMS5003;49383;-25.924;28.194;2023-04-24T00:45:08;67;59;
55485;PMS5003;49383;-25.924;28.194;2023-04-24T00:47:33;68;62;
55485;PMS5003;49383;-25.924;28.194;2023-04-24T00:49:58;66;60;
55485;PMS5003;49383;-25.924;28.194;2023-04-24T00:52:24;70;64;
55485;PMS5003;49383;-25.924;28.194;2023-04-24T00:54:50;66;64;
55485;PMS5003;49383;-25.924;28.194;2023-04-24T00:57:15;69;60;
55485;PMS5003;49383;-25.924;28.194;2023-04-24T00:59:40;74;66;
55485;PMS5003;49383;-25.924;28.194;2023-04-24T01:02:06;73;67;
55485;PMS5003;49383;-25.924;28.194;2023-04-24T01:04:31;66;61;
55485;PMS5003;49383;-25.924;28.194;2023-04-24T01:06:57;75;65;
55485;PMS5003;49383;-25.924;28.194;2023-04-24T01:09:23;68;60;
55485;PMS5003;49383;-25.924;28.194;2023-04-24T01:11:48;75;62;
55485;PMS5003;49383;-25.924;28.194;2023-04-24T01:14:14;63;57;
55485;PMS5003;49383;-25.924;28.194;2023-04-24T01:16:39;75;65;
55485;PMS5003;49383;-25.924;28.194;2023-04-24T01:19:04;74;61;
55485;PMS5003;49383;-25.924;28.194;2023-04-24T01:21:30;76;64;
55485;PMS5003;49383;-25.924;28.194;2023-04-24T01:23:55;74;64;
55485;PMS5003;49383;-25.924;28.194;2023-04-24T01:26:21;66;62;
55485;PMS5003;49383;-25.924;28.194;2023-04-24T01:28:46;68;63;
55485;PMS5003;49383;-25.924;28.194;2023-04-24T01:31:12;63;59;
55485;PMS5003;49383;-25.924;28.194;2023-04-24T01:33:37;72;64;
55485;PMS5003;49383;-25.924;28.194;2023-04-24T01:36:02;66;59;
55485;PMS5003;49383;-25.924;28.194;2023-04-24T01:38:28;64;62;
55485;PMS5003;49383;-25.924;28.194;2023-04-24T01:40:53;71;62;
55485;PMS5003;49383;-25.924;28.194;2023-04-24T01:43:18;64;60;
55485;PMS5003;49383;-25.924;28.194;2023-04-24T01:45:43;67;64;
55485;PMS5003;49383;-25.924;28.194;2023-04-24T01:48:10;70;63;
55485;PMS5003;49383;-25.924;28.194;2023-04-24T01:50:35;72;65;
55485;PMS5003;49383;-25.924;28.194;2023-04-24T01:53:00;70;62;
55485;PMS5003;49383;-25.924;28.194;2023-04-24T01:55:25;67;59;
55485;PMS5003;49383;-25.924;28.194;2023-04-24T01:57:51;68;62;
55485;PMS5003;49383;-25.924;28.194;2023-04-24T02:00:17;68;63;
55485;PMS5003;49383;-25.924;28.194;2023-04-24T02:02:42;70;62;
55485;PMS5003;49383;-25.924;28.194;2023-04-24T02:05:08;72;64;
55485;PMS5003;49383;-25.924;28.194;2023-04-24T02:07:33;63;60;
55485;PMS5003;49383;-25.924;28.194;2023-04-24T02:09:59;73;63;
55485;PMS5003;49383;-25.924;28.194;2023-04-24T02:12:24;70;62;
55485;PMS5003;49383;-25.924;28.194;2023-04-24T02:14:50;75;64;
55485;PMS5003;49383;-25.924;28.194;2023-04-24T02:17:15;73;66;
55485;PMS5003;49383;-25.924;28.194;2023-04-24T02:19:41;68;58;
55485;PMS5003;49383;-25.924;28.194;2023-04-24T02:22:06;70;64;
55485;PMS5003;49383;-25.924;28.194;2023-04-24T02:24:32;62;58;
55485;PMS5003;49383;-25.924;28.194;2023-04-24T02:26:57;75;65;
55485;PMS5003;49383;-25.924;28.194;2023-04-24T02:29:23;68;59;
55485;PMS5003;49383;-25.924;28.194;2023-04-24T02:31:48;77;64;
55485;PMS5003;49383;-25.924;28.194;2023-04-24T02:34:15;75;65;
55485;PMS5003;49383;-25.924;28.194;2023-04-24T02:36:40;71;63;
55485;PMS5003;49383;-25.924;28.194;2023-04-24T02:39:06;71;63;
55485;PMS5003;49383;-25.924;28.194;2023-04-24T02:41:31;77;66;
55485;PMS5003;49383;-25.924;28.194;2023-04-24T02:43:56;69;62;
55485;PMS5003;49383;-25.924;28.194;2023-04-24T02:46:22;74;63;
55485;PMS5003;49383;-25.924;28.194;2023-04-24T02:48:47;69;61;
55485;PMS5003;49383;-25.924;28.194;2023-04-24T02:51:12;71;60;
55485;PMS5003;49383;-25.924;28.194;2023-04-24T02:53:37;66;64;
55485;PMS5003;49383;-25.924;28.194;2023-04-24T02:56:03;67;63;
55485;PMS5003;49383;-25.924;28.194;2023-04-24T02:58:29;60;55;
55485;PMS5003;49383;-25.924;28.194;2023-04-24T03:00:54;70;67;
55485;PMS5003;49383;-25.924;28.194;2023-04-24T03:03:19;72;64;
55485;PMS5003;49383;-25.924;28.194;2023-04-24T03:05:45;62;59;
55485;PMS5003;49383;-25.924;28.194;2023-04-24T03:08:10;65;62;
55485;PMS5003;49383;-25.924;28.194;2023-04-24T03:10:35;72;63;
55485;PMS5003;49383;-25.924;28.194;2023-04-24T03:13:01;70;58;
55485;PMS5003;49383;-25.924;28.194;2023-04-24T03:15:27;71;65;
55485;PMS5003;49383;-25.924;28.194;2023-04-24T03:17:52;67;63;
55485;PMS5003;49383;-25.924;28.194;2023-04-24T03:20:19;73;60;
55485;PMS5003;49383;-25.924;28.194;2023-04-24T03:22:43;69;62;
55485;PMS5003;49383;-25.924;28.194;2023-04-24T03:25:09;65;59;
55485;PMS5003;49383;-25.924;28.194;2023-04-24T03:27:34;66;59;
55485;PMS5003;49383;-25.924;28.194;2023-04-24T03:30:00;66;61;
55485;PMS5003;49383;-25.924;28.194;2023-04-24T03:32:25;68;61;
55485;PMS5003;49383;-25.924;28.194;2023-04-24T03:34:50;66;55;
55485;PMS5003;49383;-25.924;28.194;2023-04-24T03:37:15;72;61;
55485;PMS5003;49383;-25.924;28.194;2023-04-24T03:39:41;64;58;
55485;PMS5003;49383;-25.924;28.194;2023-04-24T03:42:06;76;62;
55485;PMS5003;49383;-25.924;28.194;2023-04-24T03:44:32;76;63;
55485;PMS5003;49383;-25.924;28.194;2023-04-24T03:46:57;62;59;
55485;PMS5003;49383;-25.924;28.194;2023-04-24T03:49:23;67;61;
55485;PMS5003;49383;-25.924;28.194;2023-04-24T03:51:48;72;59;
55485;PMS5003;49383;-25.924;28.194;2023-04-24T03:54:14;60;56;
55485;PMS5003;49383;-25.924;28.194;2023-04-24T03:56:39;65;57;
55485;PMS5003;49383;-25.924;28.194;2023-04-24T03:59:04;66;55;
55485;PMS5003;49383;-25.924;28.194;2023-04-24T04:01:30;66;60;
55485;PMS5003;49383;-25.924;28.194;2023-04-24T04:03:55;64;57;
55485;PMS5003;49383;-25.924;28.194;2023-04-24T04:06:22;68;56;
55485;PMS5003;49383;-25.924;28.194;2023-04-24T04:08:46;65;57;
55485;PMS5003;49383;-25.924;28.194;2023-04-24T04:11:11;61;56;
55485;PMS5003;49383;-25.924;28.194;2023-04-24T04:13:37;66;60;
55485;PMS5003;49383;-25.924;28.194;2023-04-24T04:16:02;67;59;
55485;PMS5003;49383;-25.924;28.194;2023-04-24T04:18:28;69;58;
55485;PMS5003;49383;-25.924;28.194;2023-04-24T04:20:54;63;55;
55485;PMS5003;49383;-25.924;28.194;2023-04-24T04:23:19;56;52;
55485;PMS5003;49383;-25.924;28.194;2023-04-24T04:25:44;61;54;
55485;PMS5003;49383;-25.924;28.194;2023-04-24T04:28:10;68;56;
55485;PMS5003;49383;-25.924;28.194;2023-04-24T04:30:35;57;53;
55485;PMS5003;49383;-25.924;28.194;2023-04-24T04:33:00;62;55;
55485;PMS5003;49383;-25.924;28.194;2023-04-24T04:35:26;65;58;
55485;PMS5003;49383;-25.924;28.194;2023-04-24T04:37:51;63;55;
55485;PMS5003;49383;-25.924;28.194;2023-04-24T04:40:19;63;54;
55485;PMS5003;49383;-25.924;28.194;2023-04-24T04:42:43;64;55;
55485;PMS5003;49383;-25.924;28.194;2023-04-24T04:45:09;62;57;
55485;PMS5003;49383;-25.924;28.194;2023-04-24T04:47:34;62;54;
55485;PMS5003;49383;-25.924;28.194;2023-04-24T04:50:00;64;57;
55485;PMS5003;49383;-25.924;28.194;2023-04-24T04:52:25;58;54;
55485;PMS5003;49383;-25.924;28.194;2023-04-24T04:54:51;59;53;
55485;PMS5003;49383;-25.924;28.194;2023-04-24T04:57:16;63;56;
55485;PMS5003;49383;-25.924;28.194;2023-04-24T04:59:42;58;52;
55485;PMS5003;49383;-25.924;28.194;2023-04-24T05:02:07;62;57;
55485;PMS5003;49383;-25.924;28.194;2023-04-24T05:04:32;63;55;
55485;PMS5003;49383;-25.924;28.194;2023-04-24T05:06:58;65;58;
55485;PMS5003;49383;-25.924;28.194;2023-04-24T05:09:23;61;54;
55485;PMS5003;49383;-25.924;28.194;2023-04-24T05:11:49;66;56;
55485;PMS5003;49383;-25.924;28.194;2023-04-24T05:14:14;61;54;
55485;PMS5003;49383;-25.924;28.194;2023-04-24T05:16:40;64;55;
55485;PMS5003;49383;-25.924;28.194;2023-04-24T05:19:05;54;50;
55485;PMS5003;49383;-25.924;28.194;2023-04-24T05:21:31;55;50;
55485;PMS5003;49383;-25.924;28.194;2023-04-24T05:23:57;56;50;
55485;PMS5003;49383;-25.924;28.194;2023-04-24T05:26:21;58;54;
55485;PMS5003;49383;-25.924;28.194;2023-04-24T05:28:47;61;55;
55485;PMS5003;49383;-25.924;28.194;2023-04-24T05:31:12;53;47;
55485;PMS5003;49383;-25.924;28.194;2023-04-24T05:33:38;56;52;
55485;PMS5003;49383;-25.924;28.194;2023-04-24T05:36:03;56;50;
55485;PMS5003;49383;-25.924;28.194;2023-04-24T05:38:30;55;48;
55485;PMS5003;49383;-25.924;28.194;2023-04-24T05:40:55;55;53;
55485;PMS5003;49383;-25.924;28.194;2023-04-24T05:43:20;63;52;
55485;PMS5003;49383;-25.924;28.194;2023-04-24T05:45:45;66;55;
55485;PMS5003;49383;-25.924;28.194;2023-04-24T05:48:10;58;51;
55485;PMS5003;49383;-25.924;28.194;2023-04-24T05:50:35;58;52;
55485;PMS5003;49383;-25.924;28.194;2023-04-24T05:53:01;50;46;
55485;PMS5003;49383;-25.924;28.194;2023-04-24T05:55:26;58;51;
55485;PMS5003;49383;-25.924;28.194;2023-04-24T05:57:52;53;49;
55485;PMS5003;49383;-25.924;28.194;2023-04-24T06:00:18;62;49;
55485;PMS5003;49383;-25.924;28.194;2023-04-24T06:02:43;54;47;
55485;PMS5003;49383;-25.924;28.194;2023-04-24T06:05:09;54;45;
55485;PMS5003;49383;-25.924;28.194;2023-04-24T06:07:34;54;48;
55485;PMS5003;49383;-25.924;28.194;2023-04-24T06:10:00;48;47;
55485;PMS5003;49383;-25.924;28.194;2023-04-24T06:12:25;51;46;
55485;PMS5003;49383;-25.924;28.194;2023-04-24T06:14:51;57;50;
55485;PMS5003;49383;-25.924;28.194;2023-04-24T06:17:16;48;47;
55485;PMS5003;49383;-25.924;28.194;2023-04-24T06:19:43;59;53;
55485;PMS5003;49383;-25.924;28.194;2023-04-24T06:22:07;58;46;
55485;PMS5003;49383;-25.924;28.194;2023-04-24T06:24:33;52;48;
55485;PMS5003;49383;-25.924;28.194;2023-04-24T06:26:58;53;48;
55485;PMS5003;49383;-25.924;28.194;2023-04-24T06:29:23;57;50;
55485;PMS5003;49383;-25.924;28.194;2023-04-24T06:31:49;51;48;
55485;PMS5003;49383;-25.924;28.194;2023-04-24T06:34:14;52;45;
55485;PMS5003;49383;-25.924;28.194;2023-04-24T06:36:39;50;44;
55485;PMS5003;49383;-25.924;28.194;2023-04-24T06:39:05;50;46;
55485;PMS5003;49383;-25.924;28.194;2023-04-24T06:41:30;51;41;
55485;PMS5003;49383;-25.924;28.194;2023-04-24T06:43:56;49;47;
55485;PMS5003;49383;-25.924;28.194;2023-04-24T06:46:21;43;43;
55485;PMS5003;49383;-25.924;28.194;2023-04-24T06:48:47;54;47;
55485;PMS5003;49383;-25.924;28.194;2023-04-24T06:51:13;45;43;
55485;PMS5003;49383;-25.924;28.194;2023-04-24T06:53:38;51;45;
55485;PMS5003;49383;-25.924;28.194;2023-04-24T06:56:04;48;43;
55485;PMS5003;49383;-25.924;28.194;2023-04-24T06:58:30;49;45;
55485;PMS5003;49383;-25.924;28.194;2023-04-24T07:00:55;53;45;
55485;PMS5003;49383;-25.924;28.194;2023-04-24T07:03:20;56;48;
55485;PMS5003;49383;-25.924;28.194;2023-04-24T07:05:46;53;47;
55485;PMS5003;49383;-25.924;28.194;2023-04-24T07:08:11;47;43;
55485;PMS5003;49383;-25.924;28.194;2023-04-24T07:10:37;49;43;
55485;PMS5003;49383;-25.924;28.194;2023-04-24T07:13:03;49;43;
55485;PMS5003;49383;-25.924;28.194;2023-04-24T07:15:29;46;40;
55485;PMS5003;49383;-25.924;28.194;2023-04-24T07:17:53;53;45;
55485;PMS5003;49383;-25.924;28.194;2023-04-24T07:20:19;42;40;
55485;PMS5003;49383;-25.924;28.194;2023-04-24T07:22:44;50;43;
55485;PMS5003;49383;-25.924;28.194;2023-04-24T07:25:10;49;43;
55485;PMS5003;49383;-25.924;28.194;2023-04-24T07:27:37;48;42;
55485;PMS5003;49383;-25.924;28.194;2023-04-24T07:30:00;48;44;
55485;PMS5003;49383;-25.924;28.194;2023-04-24T07:32:26;46;38;
55485;PMS5003;49383;-25.924;28.194;2023-04-24T07:34:51;51;43;
55485;PMS5003;49383;-25.924;28.194;2023-04-24T07:37:17;49;43;
55485;PMS5003;49383;-25.924;28.194;2023-04-24T07:39:42;50;43;
55485;PMS5003;49383;-25.924;28.194;2023-04-24T07:42:08;49;40;
55485;PMS5003;49383;-25.924;28.194;2023-04-24T07:44:33;53;45;
55485;PMS5003;49383;-25.924;28.194;2023-04-24T07:46:58;47;43;
55485;PMS5003;49383;-25.924;28.194;2023-04-24T07:49:24;42;40;
55485;PMS5003;49383;-25.924;28.194;2023-04-24T07:51:49;56;46;
55485;PMS5003;49383;-25.924;28.194;2023-04-24T07:54:15;45;40;
55485;PMS5003;49383;-25.924;28.194;2023-04-24T07:56:40;43;38;
55485;PMS5003;49383;-25.924;28.194;2023-04-24T07:59:05;50;45;
55485;PMS5003;49383;-25.924;28.194;2023-04-24T08:01:31;46;42;
55485;PMS5003;49383;-25.924;28.194;2023-04-24T08:03:56;53;42;
55485;PMS5003;49383;-25.924;28.194;2023-04-24T08:06:21;40;37;
55485;PMS5003;49383;-25.924;28.194;2023-04-24T08:08:47;44;41;
55485;PMS5003;49383;-25.924;28.194;2023-04-24T08:11:13;43;40;
55485;PMS5003;49383;-25.924;28.194;2023-04-24T08:13:38;47;39;
55485;PMS5003;49383;-25.924;28.194;2023-04-24T08:16:03;39;38;
55485;PMS5003;49383;-25.924;28.194;2023-04-24T08:18:29;45;36;
55485;PMS5003;49383;-25.924;28.194;2023-04-24T08:20:55;47;40;
55485;PMS5003;49383;-25.924;28.194;2023-04-24T08:23:21;44;41;
55485;PMS5003;49383;-25.924;28.194;2023-04-24T08:25:46;39;37;
55485;PMS5003;49383;-25.924;28.194;2023-04-24T08:28:11;38;35;
55485;PMS5003;49383;-25.924;28.194;2023-04-24T08:30:36;36;34;
55485;PMS5003;49383;-25.924;28.194;2023-04-24T08:33:02;36;35;
55485;PMS5003;49383;-25.924;28.194;2023-04-24T08:35:27;41;40;
55485;PMS5003;49383;-25.924;28.194;2023-04-24T08:37:53;38;36;
55485;PMS5003;49383;-25.924;28.194;2023-04-24T08:40:18;47;36;
55485;PMS5003;49383;-25.924;28.194;2023-04-24T08:42:44;47;40;
55485;PMS5003;49383;-25.924;28.194;2023-04-24T08:45:10;35;34;
55485;PMS5003;49383;-25.924;28.194;2023-04-24T08:47:34;41;36;
55485;PMS5003;49383;-25.924;28.194;2023-04-24T08:50:00;44;37;
55485;PMS5003;49383;-25.924;28.194;2023-04-24T08:52:25;43;37;
55485;PMS5003;49383;-25.924;28.194;2023-04-24T08:54:50;39;36;
55485;PMS5003;49383;-25.924;28.194;2023-04-24T08:57:16;37;35;
55485;PMS5003;49383;-25.924;28.194;2023-04-24T08:59:42;34;33;
55485;PMS5003;49383;-25.924;28.194;2023-04-24T09:02:09;42;37;
55485;PMS5003;49383;-25.924;28.194;2023-04-24T09:04:32;36;35;
55485;PMS5003;49383;-25.924;28.194;2023-04-24T09:06:58;36;31;
55485;PMS5003;49383;-25.924;28.194;2023-04-24T09:09:24;39;35;
55485;PMS5003;49383;-25.924;28.194;2023-04-24T09:11:49;38;33;
55485;PMS5003;49383;-25.924;28.194;2023-04-24T09:14:16;41;33;
55485;PMS5003;49383;-25.924;28.194;2023-04-24T09:16:41;36;34;
55485;PMS5003;49383;-25.924;28.194;2023-04-24T09:19:06;33;32;
55485;PMS5003;49383;-25.924;28.194;2023-04-24T09:21:32;32;30;
55485;PMS5003;49383;-25.924;28.194;2023-04-24T09:23:58;34;32;
55485;PMS5003;49383;-25.924;28.194;2023-04-24T09:26:23;40;35;
55485;PMS5003;49383;-25.924;28.194;2023-04-24T09:28:49;38;34;
55485;PMS5003;49383;-25.924;28.194;2023-04-24T09:31:16;44;33;
55485;PMS5003;49383;-25.924;28.194;2023-04-24T09:33:40;36;31;
55485;PMS5003;49383;-25.924;28.194;2023-04-24T09:36:06;33;32;
55485;PMS5003;49383;-25.924;28.194;2023-04-24T09:38:31;32;30;
55485;PMS5003;49383;-25.924;28.194;2023-04-24T09:40:58;36;31;
55485;PMS5003;49383;-25.924;28.194;2023-04-24T09:43:22;31;30;
55485;PMS5003;49383;-25.924;28.194;2023-04-24T09:45:47;32;30;
55485;PMS5003;49383;-25.924;28.194;2023-04-24T09:48:13;33;30;
55485;PMS5003;49383;-25.924;28.194;2023-04-24T09:50:39;29;29;
55485;PMS5003;49383;-25.924;28.194;2023-04-24T09:53:05;36;33;
55485;PMS5003;49383;-25.924;28.194;2023-04-24T09:55:30;33;31;
55485;PMS5003;49383;-25.924;28.194;2023-04-24T09:57:56;32;31;
55485;PMS5003;49383;-25.924;28.194;2023-04-24T10:00:22;32;30;
55485;PMS5003;49383;-25.924;28.194;2023-04-24T10:02:49;33;28;
55485;PMS5003;49383;-25.924;28.194;2023-04-24T10:05:12;37;32;
55485;PMS5003;49383;-25.924;28.194;2023-04-24T10:07:38;34;31;
55485;PMS5003;49383;-25.924;28.194;2023-04-24T10:10:04;29;28;
55485;PMS5003;49383;-25.924;28.194;2023-04-24T10:12:29;33;31;
55485;PMS5003;49383;-25.924;28.194;2023-04-24T10:14:54;42;34;
55485;PMS5003;49383;-25.924;28.194;2023-04-24T10:17:20;36;28;
55485;PMS5003;49383;-25.924;28.194;2023-04-24T10:19:45;33;31;
55485;PMS5003;49383;-25.924;28.194;2023-04-24T10:22:11;33;30;
55485;PMS5003;49383;-25.924;28.194;2023-04-24T10:24:36;34;31;
55485;PMS5003;49383;-25.924;28.194;2023-04-24T10:27:02;32;29;
55485;PMS5003;49383;-25.924;28.194;2023-04-24T10:29:27;33;27;
55485;PMS5003;49383;-25.924;28.194;2023-04-24T10:31:53;35;30;
55485;PMS5003;49383;-25.924;28.194;2023-04-24T10:34:19;33;30;
55485;PMS5003;49383;-25.924;28.194;2023-04-24T10:36:45;30;28;
55485;PMS5003;49383;-25.924;28.194;2023-04-24T10:39:10;32;28;
55485;PMS5003;49383;-25.924;28.194;2023-04-24T10:41:36;31;29;
55485;PMS5003;49383;-25.924;28.194;2023-04-24T10:44:06;32;28;
55485;PMS5003;49383;-25.924;28.194;2023-04-24T10:46:25;32;31;
55485;PMS5003;49383;-25.924;28.194;2023-04-24T10:48:52;33;30;
55485;PMS5003;49383;-25.924;28.194;2023-04-24T10:51:16;30;28;
55485;PMS5003;49383;-25.924;28.194;2023-04-24T10:53:41;28;27;
55485;PMS5003;49383;-25.924;28.194;2023-04-24T10:56:07;35;29;
55485;PMS5003;49383;-25.924;28.194;2023-04-24T11:00:58;29;27;
55485;PMS5003;49383;-25.924;28.194;2023-04-24T11:03:25;28;26;
55485;PMS5003;49383;-25.924;28.194;2023-04-24T11:08:15;28;26;
55485;PMS5003;49383;-25.924;28.194;2023-04-24T11:10:38;34;29;
55485;PMS5003;49383;-25.924;28.194;2023-04-24T11:13:03;31;29;
55485;PMS5003;49383;-25.924;28.194;2023-04-24T11:15:28;29;27;
55485;PMS5003;49383;-25.924;28.194;2023-04-24T11:17:54;26;26;
55485;PMS5003;49383;-25.924;28.194;2023-04-24T11:20:22;29;28;
55485;PMS5003;49383;-25.924;28.194;2023-04-24T11:22:45;24;24;
55485;PMS5003;49383;-25.924;28.194;2023-04-24T11:25:10;31;29;
55485;PMS5003;49383;-25.924;28.194;2023-04-24T11:27:39;30;28;
55485;PMS5003;49383;-25.924;28.194;2023-04-24T11:30:02;28;25;
55485;PMS5003;49383;-25.924;28.194;2023-04-24T11:32:27;26;26;
55485;PMS5003;49383;-25.924;28.194;2023-04-24T11:34:53;32;27;
55485;PMS5003;49383;-25.924;28.194;2023-04-24T11:37:17;33;30;
55485;PMS5003;49383;-25.924;28.194;2023-04-24T11:39:42;27;26;
55485;PMS5003;49383;-25.924;28.194;2023-04-24T11:42:08;32;28;
55485;PMS5003;49383;-25.924;28.194;2023-04-24T11:44:33;28;27;
55485;PMS5003;49383;-25.924;28.194;2023-04-24T11:46:58;37;29;
55485;PMS5003;49383;-25.924;28.194;2023-04-24T11:49:24;31;28;
55485;PMS5003;49383;-25.924;28.194;2023-04-24T11:51:49;27;24;
55485;PMS5003;49383;-25.924;28.194;2023-04-24T11:54:15;27;25;
55485;PMS5003;49383;-25.924;28.194;2023-04-24T11:56:45;27;25;
55485;PMS5003;49383;-25.924;28.194;2023-04-24T11:59:05;34;28;
55485;PMS5003;49383;-25.924;28.194;2023-04-24T12:03:59;28;24;
55485;PMS5003;49383;-25.924;28.194;2023-04-24T12:06:22;26;26;
55485;PMS5003;49383;-25.924;28.194;2023-04-24T12:08:48;32;28;
55485;PMS5003;49383;-25.924;28.194;2023-04-24T12:11:14;29;24;
55485;PMS5003;49383;-25.924;28.194;2023-04-24T12:13:41;32;25;
55485;PMS5003;49383;-25.924;28.194;2023-04-24T12:16:04;28;26;
55485;PMS5003;49383;-25.924;28.194;2023-04-24T12:18:30;25;23;
55485;PMS5003;49383;-25.924;28.194;2023-04-24T12:20:55;33;27;
55485;PMS5003;49383;-25.924;28.194;2023-04-24T12:25:45;27;24;
55485;PMS5003;49383;-25.924;28.194;2023-04-24T12:28:11;30;29;
55485;PMS5003;49383;-25.924;28.194;2023-04-24T12:30:38;26;25;
55485;PMS5003;49383;-25.924;28.194;2023-04-24T12:33:01;27;25;
55485;PMS5003;49383;-25.924;28.194;2023-04-24T12:35:27;29;27;
55485;PMS5003;49383;-25.924;28.194;2023-04-24T12:37:52;23;22;
55485;PMS5003;49383;-25.924;28.194;2023-04-24T12:40:18;33;28;
55485;PMS5003;49383;-25.924;28.194;2023-04-24T12:42:43;31;30;
55485;PMS5003;49383;-25.924;28.194;2023-04-24T12:45:07;26;24;
55485;PMS5003;49383;-25.924;28.194;2023-04-24T12:47:33;27;26;
55485;PMS5003;49383;-25.924;28.194;2023-04-24T12:49:58;28;23;
55485;PMS5003;49383;-25.924;28.194;2023-04-24T12:52:24;28;25;
55485;PMS5003;49383;-25.924;28.194;2023-04-24T12:54:49;32;28;
55485;PMS5003;49383;-25.924;28.194;2023-04-24T12:57:14;26;24;
55485;PMS5003;49383;-25.924;28.194;2023-04-24T12:59:40;25;23;
55485;PMS5003;49383;-25.924;28.194;2023-04-24T13:02:06;28;24;
55485;PMS5003;49383;-25.924;28.194;2023-04-24T13:04:31;26;25;
55485;PMS5003;49383;-25.924;28.194;2023-04-24T13:06:56;27;25;
55485;PMS5003;49383;-25.924;28.194;2023-04-24T13:09:21;26;24;
55485;PMS5003;49383;-25.924;28.194;2023-04-24T13:11:47;27;24;
55485;PMS5003;49383;-25.924;28.194;2023-04-24T13:14:12;25;24;
55485;PMS5003;49383;-25.924;28.194;2023-04-24T13:16:37;30;27;
55485;PMS5003;49383;-25.924;28.194;2023-04-24T13:19:02;26;23;
55485;PMS5003;49383;-25.924;28.194;2023-04-24T13:21:28;24;23;
55485;PMS5003;49383;-25.924;28.194;2023-04-24T13:23:53;33;27;
55485;PMS5003;49383;-25.924;28.194;2023-04-24T13:26:19;26;25;
55485;PMS5003;49383;-25.924;28.194;2023-04-24T13:28:44;25;22;
55485;PMS5003;49383;-25.924;28.194;2023-04-24T13:33:34;26;24;
55485;PMS5003;49383;-25.924;28.194;2023-04-24T13:35:59;30;25;
55485;PMS5003;49383;-25.924;28.194;2023-04-24T13:38:25;29;27;
55485;PMS5003;49383;-25.924;28.194;2023-04-24T13:40:50;25;24;
55485;PMS5003;49383;-25.924;28.194;2023-04-24T13:43:16;28;24;
55485;PMS5003;49383;-25.924;28.194;2023-04-24T13:45:41;28;24;
55485;PMS5003;49383;-25.924;28.194;2023-04-24T13:48:06;30;27;
55485;PMS5003;49383;-25.924;28.194;2023-04-24T13:50:32;26;24;
55485;PMS5003;49383;-25.924;28.194;2023-04-24T13:52:57;26;24;
55485;PMS5003;49383;-25.924;28.194;2023-04-24T13:55:22;29;24;
55485;PMS5003;49383;-25.924;28.194;2023-04-24T13:57:48;25;23;
55485;PMS5003;49383;-25.924;28.194;2023-04-24T14:00:14;24;23;
55485;PMS5003;49383;-25.924;28.194;2023-04-24T14:02:39;26;25;
55485;PMS5003;49383;-25.924;28.194;2023-04-24T14:05:05;31;27;
55485;PMS5003;49383;-25.924;28.194;2023-04-24T14:07:30;24;23;
55485;PMS5003;49383;-25.924;28.194;2023-04-24T14:09:55;26;25;
55485;PMS5003;49383;-25.924;28.194;2023-04-24T14:12:20;23;22;
55485;PMS5003;49383;-25.924;28.194;2023-04-24T14:14:46;29;25;
55485;PMS5003;49383;-25.924;28.194;2023-04-24T14:17:11;31;28;
55485;PMS5003;49383;-25.924;28.194;2023-04-24T14:19:36;21;21;
55485;PMS5003;49383;-25.924;28.194;2023-04-24T14:22:01;25;24;
55485;PMS5003;49383;-25.924;28.194;2023-04-24T14:24:26;25;23;
55485;PMS5003;49383;-25.924;28.194;2023-04-24T14:26:51;27;27;
55485;PMS5003;49383;-25.924;28.194;2023-04-24T14:29:16;25;23;
55485;PMS5003;49383;-25.924;28.194;2023-04-24T14:31:53;26;26;
55485;PMS5003;49383;-25.924;28.194;2023-04-24T14:34:07;24;23;
55485;PMS5003;49383;-25.924;28.194;2023-04-24T14:36:32;24;21;
55485;PMS5003;49383;-25.924;28.194;2023-04-24T14:38:58;37;27;
55485;PMS5003;49383;-25.924;28.194;2023-04-24T14:41:23;26;24;
55485;PMS5003;49383;-25.924;28.194;2023-04-24T14:43:48;25;24;
55485;PMS5003;49383;-25.924;28.194;2023-04-24T14:46:13;26;24;
55485;PMS5003;49383;-25.924;28.194;2023-04-24T14:48:38;27;25;
55485;PMS5003;49383;-25.924;28.194;2023-04-24T14:51:04;26;24;
55485;PMS5003;49383;-25.924;28.194;2023-04-24T14:53:29;22;22;
55485;PMS5003;49383;-25.924;28.194;2023-04-24T14:55:54;27;24;
55485;PMS5003;49383;-25.924;28.194;2023-04-24T14:58:20;22;21;
55485;PMS5003;49383;-25.924;28.194;2023-04-24T15:00:45;26;25;
55485;PMS5003;49383;-25.924;28.194;2023-04-24T15:03:10;21;21;
55485;PMS5003;49383;-25.924;28.194;2023-04-24T15:05:35;24;22;
55485;PMS5003;49383;-25.924;28.194;2023-04-24T15:08:01;31;26;
55485;PMS5003;49383;-25.924;28.194;2023-04-24T15:10:26;26;23;
55485;PMS5003;49383;-25.924;28.194;2023-04-24T15:12:51;22;21;
55485;PMS5003;49383;-25.924;28.194;2023-04-24T15:15:16;22;22;
55485;PMS5003;49383;-25.924;28.194;2023-04-24T15:17:41;25;25;
55485;PMS5003;49383;-25.924;28.194;2023-04-24T15:20:07;27;24;
55485;PMS5003;49383;-25.924;28.194;2023-04-24T15:22:32;30;24;
55485;PMS5003;49383;-25.924;28.194;2023-04-24T15:24:58;28;25;
55485;PMS5003;49383;-25.924;28.194;2023-04-24T15:27:23;27;27;
55485;PMS5003;49383;-25.924;28.194;2023-04-24T15:29:48;22;22;
55485;PMS5003;49383;-25.924;28.194;2023-04-24T15:32:16;26;24;
55485;PMS5003;49383;-25.924;28.194;2023-04-24T15:34:39;25;21;
55485;PMS5003;49383;-25.924;28.194;2023-04-24T15:37:04;28;24;
55485;PMS5003;49383;-25.924;28.194;2023-04-24T15:39:29;21;21;
55485;PMS5003;49383;-25.924;28.194;2023-04-24T15:41:55;27;25;
55485;PMS5003;49383;-25.924;28.194;2023-04-24T15:44:20;27;24;
55485;PMS5003;49383;-25.924;28.194;2023-04-24T15:46:45;23;23;